createdAt,value
2023-03-22T00:00:14.334Z,77353.13
2023-03-22T00:03:01.446Z,77357.19
2023-03-22T00:05:30.516Z,77355.16
2023-03-22T00:08:00.567Z,77355.16
2023-03-22T00:10:31.273Z,77359.22
2023-03-22T00:12:59.256Z,77355.16
2023-03-22T00:15:29.506Z,77351.13
2023-03-22T00:17:59.009Z,77355.16
2023-03-22T00:20:30.637Z,77359.22
2023-03-22T00:22:58.288Z,77355.16
2023-03-22T00:25:26.345Z,77355.16
2023-03-22T00:27:53.882Z,77359.22
2023-03-22T00:30:21.188Z,77355.16
2023-03-22T00:32:49.401Z,77345.03
2023-03-22T00:35:16.454Z,77347.06
2023-03-22T00:37:43.632Z,77347.06
2023-03-22T00:40:14.691Z,77355.16
2023-03-22T00:42:43.411Z,77367.34
2023-03-22T00:45:11.945Z,77375.44
2023-03-22T00:47:39.449Z,77379.50
2023-03-22T00:50:07.522Z,77391.66
2023-03-22T00:52:35.097Z,77399.78
2023-03-22T00:55:02.330Z,77399.78
2023-03-22T00:57:29.676Z,77407.88
2023-03-22T00:59:58.550Z,77407.88
2023-03-22T01:02:29.729Z,77403.84
2023-03-22T01:04:57.364Z,77401.81
2023-03-22T01:07:24.909Z,77407.88
2023-03-22T01:09:52.419Z,77420.06
2023-03-22T01:12:20.381Z,77420.06
2023-03-22T01:14:47.754Z,77424.09
2023-03-22T01:17:16.015Z,77420.06
2023-03-22T01:19:43.225Z,77422.06
2023-03-22T01:22:10.829Z,77420.06
2023-03-22T01:24:37.887Z,77426.13
2023-03-22T01:27:05.906Z,77424.09
2023-03-22T01:29:33.122Z,77430.19
2023-03-22T01:32:00.372Z,77424.09
2023-03-22T01:34:27.708Z,77428.16
2023-03-22T01:36:55.559Z,77430.19
2023-03-22T01:39:22.991Z,77436.28
2023-03-22T01:41:55.910Z,77442.34
2023-03-22T01:44:24.040Z,77448.44
2023-03-22T01:46:54.081Z,77448.44
2023-03-22T01:49:28.654Z,77452.50
2023-03-22T01:51:58.843Z,77462.63
2023-03-22T01:54:54.117Z,77466.69
2023-03-22T01:57:47.629Z,77472.78
2023-03-22T02:00:21.156Z,77476.81
2023-03-22T02:03:11.936Z,77484.94
2023-03-22T02:05:44.658Z,77489.00
2023-03-22T02:08:15.061Z,77501.16
2023-03-22T02:11:05.846Z,77517.38
2023-03-22T02:13:53.803Z,77527.50
2023-03-22T02:16:40.703Z,77541.72
2023-03-22T02:19:45.786Z,77553.88
2023-03-22T02:23:02.049Z,77570.09
2023-03-22T02:25:41.279Z,77574.16
2023-03-22T02:28:29.748Z,77578.22
2023-03-22T02:31:09.363Z,77582.25
2023-03-22T02:33:54.582Z,77596.44
2023-03-22T02:36:46.623Z,77606.59
2023-03-22T02:39:16.588Z,77614.69
2023-03-22T02:42:12.216Z,77610.66
2023-03-22T02:44:50.014Z,77622.81
2023-03-22T02:47:34.332Z,77630.94
2023-03-22T02:50:10.473Z,77639.03
2023-03-22T02:52:40.649Z,77647.16
2023-03-22T02:55:32.498Z,77651.19
2023-03-22T02:58:21.695Z,77655.25
2023-03-22T03:00:54.838Z,77659.31
2023-03-22T03:03:25.749Z,77657.28
2023-03-22T03:06:00.871Z,77667.44
2023-03-22T03:08:30.718Z,77667.44
2023-03-22T03:10:59.642Z,77669.44
2023-03-22T03:13:26.972Z,77677.56
2023-03-22T03:16:00.164Z,77687.69
2023-03-22T03:18:47.190Z,77687.69
2023-03-22T03:21:34.821Z,77691.75
2023-03-22T03:24:23.298Z,77699.88
2023-03-22T03:27:31.560Z,77703.94
2023-03-22T03:30:02.597Z,77712.03
2023-03-22T03:32:38.537Z,77712.03
2023-03-22T03:35:41.016Z,77718.13
2023-03-22T03:38:18.745Z,77720.16
2023-03-22T03:40:51.927Z,77728.25
2023-03-22T03:43:22.300Z,77732.31
2023-03-22T03:45:51.981Z,77740.44
2023-03-22T03:48:22.404Z,77744.47
2023-03-22T03:50:52.704Z,77768.81
2023-03-22T03:53:20.023Z,77793.16
2023-03-22T03:55:47.578Z,77789.09
2023-03-22T03:58:16.768Z,77797.19
2023-03-22T04:00:46.595Z,77801.25
2023-03-22T04:03:46.647Z,77811.41
2023-03-22T04:06:34.680Z,77807.34
2023-03-22T04:09:08.456Z,77817.47
2023-03-22T04:11:40.423Z,77825.59
2023-03-22T04:14:07.464Z,77825.59
2023-03-22T04:16:34.714Z,77829.66
2023-03-22T04:19:02.547Z,77825.59
2023-03-22T04:21:29.854Z,77825.59
2023-03-22T04:23:58.502Z,77829.66
2023-03-22T04:26:27.813Z,77837.75
2023-03-22T04:29:16.727Z,77833.69
2023-03-22T04:31:48.914Z,77829.66
2023-03-22T04:34:21.571Z,77827.63
2023-03-22T04:37:02.712Z,77817.47
2023-03-22T04:39:59.602Z,77813.44
2023-03-22T04:42:37.243Z,77811.41
2023-03-22T04:45:13.790Z,77813.44
2023-03-22T04:47:44.208Z,77809.38
2023-03-22T04:50:11.979Z,77807.34
2023-03-22T04:52:50.049Z,77801.25
2023-03-22T04:55:17.481Z,77805.31
2023-03-22T04:57:45.914Z,77801.25
2023-03-22T05:00:13.369Z,77789.09
2023-03-22T05:02:41.818Z,77797.19
2023-03-22T05:05:17.042Z,77787.06
2023-03-22T05:07:45.824Z,77797.19
2023-03-22T05:10:12.748Z,77793.16
2023-03-22T05:12:41.208Z,77783.00
2023-03-22T05:15:16.828Z,77783.00
2023-03-22T05:17:44.850Z,77774.91
2023-03-22T05:20:11.982Z,77768.81
2023-03-22T05:22:41.454Z,77768.81
2023-03-22T05:25:10.993Z,77752.59
2023-03-22T05:27:40.784Z,77744.47
2023-03-22T05:30:34.029Z,77740.44
2023-03-22T05:33:09.514Z,77740.44
2023-03-22T05:35:42.295Z,77736.38
2023-03-22T05:38:10.711Z,77720.16
2023-03-22T05:40:42.086Z,77712.03
2023-03-22T05:43:09.852Z,77707.97
2023-03-22T05:45:41.639Z,77691.75
2023-03-22T05:48:22.012Z,77675.53
2023-03-22T05:50:49.541Z,77655.25
2023-03-22T05:53:17.704Z,77626.88
2023-03-22T05:56:01.950Z,77606.59
2023-03-22T05:58:32.635Z,77590.38
2023-03-22T06:01:06.134Z,77574.16
2023-03-22T06:03:59.481Z,77549.81
2023-03-22T06:06:34.581Z,77535.63
2023-03-22T06:09:16.743Z,77509.25
2023-03-22T06:11:46.838Z,77484.94
2023-03-22T06:14:15.975Z,77466.69
2023-03-22T06:17:03.387Z,77448.44
2023-03-22T06:19:31.375Z,77432.22
2023-03-22T06:22:02.035Z,77413.97
2023-03-22T06:24:29.388Z,77395.72
2023-03-22T06:26:56.379Z,77367.34
2023-03-22T06:29:23.881Z,77343.00
2023-03-22T06:31:54.613Z,77310.56
2023-03-22T06:34:25.380Z,77278.13
2023-03-22T06:36:54.767Z,77249.75
2023-03-22T06:39:37.101Z,77225.41
2023-03-22T06:42:04.071Z,77199.06
2023-03-22T06:44:31.917Z,77164.59
2023-03-22T06:47:13.105Z,77132.16
2023-03-22T06:49:47.701Z,77115.94
2023-03-22T06:52:19.724Z,77083.50
2023-03-22T06:54:47.465Z,77059.16
2023-03-22T06:57:14.715Z,77026.72
2023-03-22T06:59:42.732Z,77006.44
2023-03-22T07:02:12.325Z,76967.94
2023-03-22T07:04:42.600Z,76937.53
2023-03-22T07:07:09.618Z,76913.19
2023-03-22T07:09:36.897Z,76880.75
2023-03-22T07:12:05.058Z,76844.25
2023-03-22T07:14:33.056Z,76815.88
2023-03-22T07:17:19.031Z,76787.50
2023-03-22T07:19:46.371Z,76759.13
2023-03-22T07:22:14.240Z,76742.91
2023-03-22T07:24:55.721Z,76726.69
2023-03-22T07:27:24.807Z,76708.44
2023-03-22T07:29:52.622Z,76694.25
2023-03-22T07:32:19.973Z,76673.97
2023-03-22T07:35:01.656Z,76649.66
2023-03-22T07:37:29.220Z,76629.38
2023-03-22T07:39:56.438Z,76607.09
2023-03-22T07:42:26.360Z,76588.84
2023-03-22T07:45:12.164Z,76564.50
2023-03-22T07:47:43.029Z,76564.50
2023-03-22T07:50:33.549Z,76536.13
2023-03-22T07:53:05.004Z,76521.94
2023-03-22T07:55:32.483Z,76519.91
2023-03-22T07:57:59.750Z,76509.78
2023-03-22T08:00:27.137Z,76495.59
2023-03-22T08:03:14.146Z,76467.22
2023-03-22T08:06:08.184Z,76430.72
2023-03-22T08:08:37.390Z,76406.41
2023-03-22T08:11:07.048Z,76402.34
2023-03-22T08:13:34.400Z,76414.50
2023-03-22T08:16:01.856Z,76424.66
2023-03-22T08:18:31.158Z,76426.69
2023-03-22T08:21:00.214Z,76414.50
2023-03-22T08:23:40.952Z,76404.38
2023-03-22T08:26:12.294Z,76365.88
2023-03-22T08:28:39.461Z,76343.56
2023-03-22T08:31:15.486Z,76325.31
2023-03-22T08:33:44.723Z,76292.91
2023-03-22T08:36:16.498Z,76288.84
2023-03-22T08:38:53.264Z,76296.94
2023-03-22T08:41:26.873Z,76305.06
2023-03-22T08:43:53.976Z,76288.84
2023-03-22T08:46:21.208Z,76292.91
2023-03-22T08:48:51.668Z,76292.91
2023-03-22T08:51:25.659Z,76280.72
2023-03-22T08:54:09.822Z,76254.38
2023-03-22T08:56:55.741Z,76232.09
2023-03-22T08:59:45.637Z,76223.97
2023-03-22T09:02:33.384Z,76215.88
2023-03-22T09:05:01.641Z,76223.97
2023-03-22T09:07:29.139Z,76228.03
2023-03-22T09:10:13.219Z,76228.03
2023-03-22T09:12:44.231Z,76223.97
2023-03-22T09:15:11.392Z,76219.94
2023-03-22T09:17:41.614Z,76215.88
2023-03-22T09:20:12.814Z,76223.97
2023-03-22T09:22:42.722Z,76236.16
2023-03-22T09:25:12.995Z,76240.19
2023-03-22T09:27:43.150Z,76234.13
2023-03-22T09:30:11.295Z,76223.97
2023-03-22T09:32:40.602Z,76215.88
2023-03-22T09:35:08.916Z,76209.78
2023-03-22T09:37:45.636Z,76191.56
2023-03-22T09:40:13.731Z,76183.44
2023-03-22T09:42:46.386Z,76187.50
2023-03-22T09:45:41.143Z,76185.47
2023-03-22T09:48:18.531Z,76181.41
2023-03-22T09:50:49.486Z,76175.34
2023-03-22T09:53:17.868Z,76167.22
2023-03-22T09:55:55.376Z,76144.94
2023-03-22T09:58:31.051Z,76136.81
2023-03-22T10:01:02.730Z,76126.69
2023-03-22T10:03:32.950Z,76142.91
2023-03-22T10:06:12.368Z,76138.84
2023-03-22T10:09:14.048Z,76122.63
2023-03-22T10:11:49.653Z,76106.41
2023-03-22T10:14:39.398Z,76069.94
2023-03-22T10:17:12.131Z,76053.72
2023-03-22T10:19:55.358Z,76049.69
2023-03-22T10:22:30.150Z,76045.63
2023-03-22T10:25:00.348Z,76057.78
2023-03-22T10:27:29.765Z,76037.50
2023-03-22T10:30:23.200Z,76045.63
2023-03-22T10:33:01.726Z,76061.84
2023-03-22T10:35:30.779Z,76080.06
2023-03-22T10:38:01.720Z,76080.06
2023-03-22T10:40:32.956Z,76065.88
2023-03-22T10:43:11.745Z,76049.69
2023-03-22T10:45:40.388Z,76041.56
2023-03-22T10:48:16.713Z,76037.50
2023-03-22T10:50:45.930Z,76027.38
2023-03-22T10:53:31.633Z,76025.34
2023-03-22T10:55:59.216Z,76009.13
2023-03-22T10:58:31.656Z,75994.94
2023-03-22T11:01:25.496Z,75972.66
2023-03-22T11:03:57.658Z,75984.81
2023-03-22T11:06:29.962Z,75994.94
2023-03-22T11:09:11.632Z,75984.81
2023-03-22T11:11:48.367Z,75970.63
2023-03-22T11:14:21.668Z,75960.50
2023-03-22T11:16:53.858Z,75968.59
2023-03-22T11:19:32.231Z,75976.72
2023-03-22T11:22:00.977Z,76001.03
2023-03-22T11:24:31.117Z,76017.25
2023-03-22T11:27:19.364Z,76029.41
2023-03-22T11:29:49.739Z,76041.56
2023-03-22T11:33:11.316Z,76041.56
2023-03-22T11:35:39.421Z,76029.41
2023-03-22T11:38:07.682Z,76005.09
2023-03-22T11:40:36.958Z,75984.81
2023-03-22T11:43:10.326Z,75966.56
2023-03-22T11:45:41.804Z,75952.38
2023-03-22T11:48:15.771Z,75940.22
2023-03-22T11:50:44.629Z,75936.19
2023-03-22T11:53:17.010Z,75932.13
2023-03-22T11:55:45.312Z,75936.19
2023-03-22T11:58:28.332Z,75944.28
2023-03-22T12:01:01.006Z,75928.06
2023-03-22T12:03:36.731Z,75911.84
2023-03-22T12:06:18.939Z,75895.66
2023-03-22T12:08:54.674Z,75881.44
2023-03-22T12:11:29.512Z,75871.31
2023-03-22T12:14:09.584Z,75851.06
2023-03-22T12:16:47.777Z,75842.94
2023-03-22T12:19:17.953Z,75830.78
2023-03-22T12:21:46.399Z,75826.72
2023-03-22T12:24:30.838Z,75834.84
2023-03-22T12:27:04.469Z,75806.47
2023-03-22T12:29:32.269Z,75782.16
2023-03-22T12:32:07.167Z,75761.88
2023-03-22T12:34:43.676Z,75753.78
2023-03-22T12:37:19.445Z,75729.47
2023-03-22T12:39:53.914Z,75709.19
2023-03-22T12:42:50.351Z,75717.28
2023-03-22T12:45:31.381Z,75701.09
2023-03-22T12:48:10.511Z,75692.97
2023-03-22T12:51:05.880Z,75692.97
2023-03-22T12:53:42.654Z,75701.09
2023-03-22T12:56:17.716Z,75745.66
2023-03-22T12:58:51.959Z,75761.88
2023-03-22T13:01:28.724Z,75774.03
2023-03-22T13:03:57.788Z,75761.88
2023-03-22T13:06:55.559Z,75765.94
2023-03-22T13:09:45.798Z,75770.00
2023-03-22T13:12:19.184Z,75786.19
2023-03-22T13:14:52.131Z,75782.16
2023-03-22T13:17:22.483Z,75782.16
2023-03-22T13:20:00.184Z,75780.13
2023-03-22T13:22:36.615Z,75761.88
2023-03-22T13:25:13.469Z,75749.72
2023-03-22T13:28:26.554Z,75753.78
2023-03-22T13:30:58.902Z,75719.31
2023-03-22T13:33:33.027Z,75697.03
2023-03-22T13:36:07.353Z,75668.66
2023-03-22T13:38:37.358Z,75658.53
2023-03-22T13:41:17.232Z,75660.56
2023-03-22T13:44:26.110Z,75670.69
2023-03-22T13:46:57.267Z,75680.81
2023-03-22T13:49:38.994Z,75688.94
2023-03-22T13:52:09.215Z,75697.03
2023-03-22T13:54:42.539Z,75719.31
2023-03-22T13:57:37.729Z,75717.28
2023-03-22T14:00:20.708Z,75721.34
2023-03-22T14:02:50.106Z,75729.47
2023-03-22T14:05:23.577Z,75743.66
2023-03-22T14:07:53.872Z,75745.66
2023-03-22T14:10:22.919Z,75749.72
2023-03-22T14:12:59.452Z,75753.78
2023-03-22T14:15:32.366Z,75759.84
2023-03-22T14:18:08.348Z,75765.94
2023-03-22T14:20:37.926Z,75765.94
